createdAt,value
2023-04-27T00:00:26.376Z,97805.91
2023-04-27T00:03:17.364Z,97804.21
2023-04-27T00:05:48.910Z,97807.72
2023-04-27T00:08:20.162Z,97804.67
2023-04-27T00:10:51.425Z,97802.44
2023-04-27T00:13:22.438Z,97802.25
2023-04-27T00:15:53.840Z,97802.97
2023-04-27T00:18:25.090Z,97801.77
2023-04-27T00:20:56.071Z,97799.96
2023-04-27T00:23:28.035Z,97798.36
2023-04-27T00:25:58.993Z,97797.36
2023-04-27T00:28:29.932Z,97798.16
2023-04-27T00:31:03.668Z,97797.14
2023-04-27T00:33:34.790Z,97796.95
2023-04-27T00:36:06.401Z,97797.87
2023-04-27T00:38:37.525Z,97801.67
2023-04-27T00:41:09.200Z,97800.58
2023-04-27T00:43:47.015Z,97801.98
2023-04-27T00:46:17.964Z,97805.07
2023-04-27T00:48:49.705Z,97802.66
2023-04-27T00:51:22.084Z,97804.79
2023-04-27T00:53:54.710Z,97802.06
2023-04-27T00:56:25.993Z,97805.88
2023-04-27T00:58:57.213Z,97805.38
2023-04-27T01:01:28.470Z,97806.09
2023-04-27T01:03:58.257Z,97804.12
2023-04-27T01:06:29.829Z,97804.86
2023-04-27T01:08:59.236Z,97805.99
2023-04-27T01:11:30.410Z,97809.52
2023-04-27T01:14:06.599Z,97809.84
2023-04-27T01:16:39.080Z,97809.41
2023-04-27T01:19:10.494Z,97809.10
2023-04-27T01:21:41.773Z,97811.48
2023-04-27T01:24:13.483Z,97811.29
2023-04-27T01:26:54.024Z,97813.38
2023-04-27T01:29:25.207Z,97814.79
2023-04-27T01:31:56.454Z,97816.66
2023-04-27T01:34:27.496Z,97818.72
2023-04-27T01:36:58.618Z,97821.29
2023-04-27T01:39:30.049Z,97823.36
2023-04-27T01:42:02.747Z,97828.76
2023-04-27T01:44:33.650Z,97827.73
2023-04-27T01:47:04.724Z,97825.04
2023-04-27T01:49:35.757Z,97832.71
2023-04-27T01:52:07.188Z,97830.10
2023-04-27T01:54:36.812Z,97832.36
2023-04-27T01:57:07.796Z,97830.34
2023-04-27T01:59:38.988Z,97830.92
2023-04-27T02:02:10.255Z,97833.50
2023-04-27T02:04:43.646Z,97834.41
2023-04-27T02:07:14.913Z,97835.48
2023-04-27T02:09:46.075Z,97837.17
2023-04-27T02:12:17.340Z,97840.16
2023-04-27T02:14:48.774Z,97841.23
2023-04-27T02:17:19.885Z,97844.08
2023-04-27T02:19:50.878Z,97848.94
2023-04-27T02:22:21.922Z,97850.67
2023-04-27T02:24:53.054Z,97851.79
2023-04-27T02:27:24.907Z,97857.39
2023-04-27T02:29:54.878Z,97856.08
2023-04-27T02:32:27.386Z,97852.80
2023-04-27T02:34:58.475Z,97854.80
2023-04-27T02:37:29.755Z,97853.02
2023-04-27T02:40:01.042Z,97850.59
2023-04-27T02:42:34.052Z,97854.35
2023-04-27T02:45:05.909Z,97852.88
2023-04-27T02:47:35.443Z,97847.34
2023-04-27T02:50:08.048Z,97848.06
2023-04-27T02:52:39.028Z,97852.77
2023-04-27T02:55:10.906Z,97851.41
2023-04-27T02:57:42.242Z,97847.20
2023-04-27T03:00:14.853Z,97844.37
2023-04-27T03:02:46.372Z,97844.86
2023-04-27T03:05:16.125Z,97846.52
2023-04-27T03:07:47.158Z,97844.34
2023-04-27T03:10:18.443Z,97848.23
2023-04-27T03:12:49.548Z,97844.66
2023-04-27T03:15:21.411Z,97847.73
2023-04-27T03:17:52.486Z,97847.83
2023-04-27T03:20:24.148Z,97854.33
2023-04-27T03:22:55.379Z,97850.73
2023-04-27T03:25:26.847Z,97851.14
2023-04-27T03:28:01.232Z,97855.30
2023-04-27T03:30:32.389Z,97856.14
2023-04-27T03:33:03.907Z,97859.39
2023-04-27T03:35:35.170Z,97863.83
2023-04-27T03:38:06.538Z,97862.76
2023-04-27T03:40:37.665Z,97863.47
2023-04-27T03:43:08.887Z,97861.41
2023-04-27T03:45:40.144Z,97861.30
2023-04-27T03:48:11.478Z,97865.39
2023-04-27T03:50:42.548Z,97867.77
2023-04-27T03:53:13.882Z,97869.84
2023-04-27T03:55:46.687Z,97869.62
2023-04-27T03:58:18.325Z,97874.73
2023-04-27T04:00:49.624Z,97883.38
2023-04-27T04:03:21.215Z,97889.88
2023-04-27T04:05:52.580Z,97889.11
2023-04-27T04:08:23.684Z,97886.23
2023-04-27T04:10:54.853Z,97884.36
2023-04-27T04:13:25.962Z,97886.55
2023-04-27T04:16:08.642Z,97886.77
2023-04-27T04:18:40.497Z,97888.73
2023-04-27T04:21:12.079Z,97890.34
2023-04-27T04:23:43.281Z,97896.59
2023-04-27T04:26:14.999Z,97906.29
2023-04-27T04:28:46.060Z,97907.30
2023-04-27T04:31:21.805Z,97909.75
2023-04-27T04:33:53.226Z,97913.30
2023-04-27T04:36:24.580Z,97918.24
2023-04-27T04:38:57.292Z,97920.13
2023-04-27T04:41:28.855Z,97918.63
2023-04-27T04:43:58.448Z,97923.02
2023-04-27T04:46:31.035Z,97925.38
2023-04-27T04:49:03.054Z,97928.45
2023-04-27T04:51:34.584Z,97928.02
2023-04-27T04:54:06.119Z,97928.86
2023-04-27T04:56:37.250Z,97931.17
2023-04-27T04:59:08.162Z,97934.99
2023-04-27T05:01:39.339Z,97932.20
2023-04-27T05:04:11.182Z,97934.59
2023-04-27T05:06:42.295Z,97937.55
2023-04-27T05:09:13.513Z,97938.23
2023-04-27T05:11:44.571Z,97932.65
2023-04-27T05:14:15.656Z,97932.85
2023-04-27T05:16:49.091Z,97936.13
2023-04-27T05:19:20.871Z,97936.19
2023-04-27T05:21:51.997Z,97931.42
2023-04-27T05:24:22.974Z,97934.02
2023-04-27T05:26:54.082Z,97930.19
2023-04-27T05:29:25.768Z,97932.13
2023-04-27T05:31:57.600Z,97930.72
2023-04-27T05:34:28.737Z,97931.60
2023-04-27T05:36:59.991Z,97928.61
2023-04-27T05:39:31.444Z,97930.21
2023-04-27T05:42:02.734Z,97932.02
2023-04-27T05:44:33.731Z,97930.95
2023-04-27T05:47:04.811Z,97932.46
2023-04-27T05:49:36.148Z,97934.93
2023-04-27T05:52:07.651Z,97935.65
2023-04-27T05:54:38.647Z,97933.87
2023-04-27T05:57:09.664Z,97936.23
2023-04-27T05:59:42.455Z,97934.77
2023-04-27T06:02:13.443Z,97931.27
2023-04-27T06:04:45.049Z,97928.23
2023-04-27T06:07:17.544Z,97932.38
2023-04-27T06:09:48.665Z,97934.14
2023-04-27T06:12:19.863Z,97933.48
2023-04-27T06:14:50.845Z,97927.31
2023-04-27T06:17:22.611Z,97927.40
2023-04-27T06:19:53.577Z,97930.05
2023-04-27T06:22:24.688Z,97929.09
2023-04-27T06:24:55.735Z,97929.34
2023-04-27T06:27:26.758Z,97928.30
2023-04-27T06:29:57.785Z,97929.04
2023-04-27T06:32:28.907Z,97931.16
2023-04-27T06:34:58.332Z,97938.27
2023-04-27T06:37:29.473Z,97935.91
2023-04-27T06:40:01.126Z,97934.23
2023-04-27T06:42:30.967Z,97931.65
2023-04-27T06:45:02.374Z,97927.38
2023-04-27T06:47:31.798Z,97927.39
2023-04-27T06:50:03.290Z,97927.23
2023-04-27T06:52:35.879Z,97926.88
2023-04-27T06:55:08.086Z,97925.34
2023-04-27T06:57:39.376Z,97922.00
2023-04-27T07:00:13.395Z,97926.16
2023-04-27T07:02:44.781Z,97925.05
2023-04-27T07:05:16.497Z,97926.67
2023-04-27T07:07:47.733Z,97925.99
2023-04-27T07:10:19.160Z,97929.30
2023-04-27T07:12:50.184Z,97926.79
2023-04-27T07:15:19.590Z,97924.66
2023-04-27T07:17:50.582Z,97924.74
2023-04-27T07:20:19.964Z,97920.21
2023-04-27T07:22:51.601Z,97920.03
2023-04-27T07:25:22.951Z,97920.69
2023-04-27T07:27:55.108Z,97921.19
2023-04-27T07:30:26.446Z,97924.77
2023-04-27T07:32:57.743Z,97921.14
2023-04-27T07:35:29.033Z,97925.59
2023-04-27T07:38:01.757Z,97924.48
2023-04-27T07:40:34.610Z,97925.52
2023-04-27T07:43:05.728Z,97926.64
2023-04-27T07:45:39.032Z,97920.55
2023-04-27T07:48:10.684Z,97921.48
2023-04-27T07:50:41.632Z,97921.70
2023-04-27T07:53:12.949Z,97918.67
2023-04-27T07:55:45.108Z,97928.61
2023-04-27T07:58:16.296Z,97931.40
2023-04-27T08:00:47.382Z,97933.17
2023-04-27T08:03:18.757Z,97933.77
2023-04-27T08:05:50.536Z,97934.11
2023-04-27T08:08:22.919Z,97934.33
2023-04-27T08:10:53.922Z,97938.30
2023-04-27T08:13:25.594Z,97938.23
2023-04-27T08:15:59.270Z,97938.83
2023-04-27T08:18:30.418Z,97941.46
2023-04-27T08:21:01.528Z,97944.17
2023-04-27T08:23:33.324Z,97941.84
2023-04-27T08:26:07.684Z,97936.42
2023-04-27T08:28:38.948Z,97940.17
2023-04-27T08:31:10.418Z,97941.07
2023-04-27T08:33:42.065Z,97937.27
2023-04-27T08:36:13.494Z,97935.26
2023-04-27T08:38:44.794Z,97935.83
2023-04-27T08:41:22.506Z,97941.07
2023-04-27T08:43:54.766Z,97937.17
2023-04-27T08:46:27.473Z,97943.64
2023-04-27T08:48:58.627Z,97945.17
2023-04-27T08:51:28.755Z,97949.00
2023-04-27T08:54:00.347Z,97946.83
2023-04-27T08:56:31.889Z,97945.67
2023-04-27T08:59:04.635Z,97944.90
2023-04-27T09:01:36.619Z,97948.73
2023-04-27T09:04:08.392Z,97947.56
2023-04-27T09:06:40.066Z,97947.27
2023-04-27T09:09:11.913Z,97948.24
2023-04-27T09:11:43.141Z,97948.44
2023-04-27T09:14:21.745Z,97950.02
2023-04-27T09:16:59.369Z,97949.81
2023-04-27T09:19:31.709Z,97950.77
2023-04-27T09:22:10.974Z,97948.85
2023-04-27T09:24:51.281Z,97949.33
2023-04-27T09:27:24.515Z,97952.52
2023-04-27T09:29:55.354Z,97949.84
2023-04-27T09:32:26.678Z,97944.79
2023-04-27T09:34:58.086Z,97948.20
2023-04-27T09:37:31.065Z,97945.41
2023-04-27T09:40:02.982Z,97946.25
2023-04-27T09:42:34.501Z,97944.97
2023-04-27T09:45:08.148Z,97945.73
2023-04-27T09:47:39.769Z,97947.66
2023-04-27T09:50:13.586Z,97950.91
2023-04-27T09:52:44.920Z,97952.38
2023-04-27T09:55:21.134Z,97945.90
2023-04-27T09:57:59.953Z,97941.73
2023-04-27T10:00:44.013Z,97938.44
2023-04-27T10:03:29.733Z,97925.80
2023-04-27T10:06:33.163Z,97926.60
2023-04-27T10:09:06.738Z,97915.71
2023-04-27T10:11:41.737Z,97917.81
2023-04-27T10:14:18.662Z,97918.83
2023-04-27T10:16:52.026Z,97916.02
2023-04-27T10:19:23.779Z,97919.06
2023-04-27T10:22:00.536Z,97924.66
2023-04-27T10:24:42.735Z,97933.23
2023-04-27T10:27:18.640Z,97928.27
2023-04-27T10:29:50.879Z,97929.10
2023-04-27T10:32:27.323Z,97926.98
2023-04-27T10:35:09.925Z,97930.05
2023-04-27T10:37:44.536Z,97937.33
2023-04-27T10:40:18.075Z,97936.45
2023-04-27T10:42:49.995Z,97930.23
2023-04-27T10:45:31.977Z,97929.60
2023-04-27T10:48:04.065Z,97925.32
2023-04-27T10:50:35.939Z,97920.23
2023-04-27T10:53:08.945Z,97926.83
2023-04-27T10:55:40.158Z,97930.04
2023-04-27T10:58:11.483Z,97921.85
2023-04-27T11:00:44.688Z,97915.92
2023-04-27T11:03:19.466Z,97914.77
2023-04-27T11:06:00.166Z,97917.62
2023-04-27T11:08:32.913Z,97918.68
2023-04-27T11:11:06.094Z,97914.83
2023-04-27T11:13:37.345Z,97914.17
2023-04-27T11:16:08.924Z,97916.13
2023-04-27T11:18:41.037Z,97916.77
2023-04-27T11:21:13.504Z,97914.23
2023-04-27T11:23:44.524Z,97911.78
2023-04-27T11:26:16.983Z,97911.31
2023-04-27T11:29:01.272Z,97908.22
2023-04-27T11:31:43.566Z,97911.02
2023-04-27T11:34:19.573Z,97914.33
2023-04-27T11:39:38.572Z,97914.58
2023-04-27T11:42:20.704Z,97913.14
2023-04-27T11:44:59.992Z,97910.93
2023-04-27T11:47:32.772Z,97911.77
2023-04-27T11:50:06.258Z,97914.99
2023-04-27T11:52:40.131Z,97915.91
2023-04-27T11:55:16.382Z,97916.27
2023-04-27T11:57:47.488Z,97918.77
2023-04-27T12:00:20.457Z,97922.05
2023-04-27T12:02:51.671Z,97922.58
2023-04-27T12:05:23.867Z,97919.21
2023-04-27T12:07:55.044Z,97922.50
2023-04-27T12:10:26.344Z,97923.11
2023-04-27T12:12:57.440Z,97927.08
2023-04-27T12:15:28.514Z,97920.84
2023-04-27T12:17:59.523Z,97919.43
2023-04-27T12:20:30.820Z,97922.41
2023-04-27T12:23:01.824Z,97923.26
2023-04-27T12:25:33.201Z,97919.48
2023-04-27T12:28:04.272Z,97919.36
2023-04-27T12:30:36.101Z,97916.38
2023-04-27T12:33:11.061Z,97916.02
2023-04-27T12:35:42.364Z,97914.63
2023-04-27T12:38:13.514Z,97912.79
2023-04-27T12:40:44.470Z,97918.60
2023-04-27T12:43:15.441Z,97916.44
2023-04-27T12:45:46.456Z,97922.09
2023-04-27T12:48:17.748Z,97917.69
2023-04-27T12:50:49.367Z,97912.11
2023-04-27T12:53:21.744Z,97914.86
2023-04-27T12:55:53.798Z,97914.17
2023-04-27T12:58:25.330Z,97915.69
2023-04-27T13:00:58.803Z,97916.55
2023-04-27T13:03:30.070Z,97917.29
2023-04-27T13:06:02.792Z,97916.41
2023-04-27T13:08:33.848Z,97909.11
2023-04-27T13:11:04.996Z,97909.91
2023-04-27T13:13:36.126Z,97904.55
2023-04-27T13:16:08.161Z,97904.48
2023-04-27T13:18:40.202Z,97900.52
2023-04-27T13:21:11.226Z,97901.48
2023-04-27T13:23:42.438Z,97900.94
2023-04-27T13:26:13.724Z,97902.08
2023-04-27T13:28:44.771Z,97900.56
2023-04-27T13:31:15.885Z,97903.20
2023-04-27T13:33:46.950Z,97897.23
2023-04-27T13:36:18.042Z,97901.45
2023-04-27T13:38:49.399Z,97906.15
2023-04-27T13:41:21.005Z,97907.41
2023-04-27T13:43:51.984Z,97902.88
2023-04-27T13:46:23.609Z,97903.70
2023-04-27T13:48:54.798Z,97905.80
2023-04-27T13:51:29.989Z,97905.29
2023-04-27T13:54:03.996Z,97908.38
2023-04-27T13:56:41.584Z,97905.70
2023-04-27T13:59:11.236Z,97898.41
2023-04-27T14:01:42.261Z,97896.44
2023-04-27T14:04:13.336Z,97890.92
2023-04-27T14:06:44.484Z,97893.25
2023-04-27T14:09:16.404Z,97894.30
2023-04-27T14:11:56.478Z,97888.84
2023-04-27T14:14:29.283Z,97895.65
2023-04-27T14:17:00.397Z,97897.14
2023-04-27T14:19:31.698Z,97893.52
2023-04-27T14:22:04.703Z,97892.13
2023-04-27T14:24:35.798Z,97891.64
2023-04-27T14:27:07.421Z,97890.27
2023-04-27T14:29:38.475Z,97884.39
2023-04-27T14:32:09.640Z,97883.58
2023-04-27T14:34:41.132Z,97883.84
2023-04-27T14:37:12.115Z,97884.90
2023-04-27T14:39:45.313Z,97883.14
2023-04-27T14:42:16.501Z,97881.23
2023-04-27T14:44:49.725Z,97882.75
2023-04-27T14:47:21.072Z,97881.34
2023-04-27T14:49:52.187Z,97886.39
2023-04-27T14:52:23.404Z,97892.17
2023-04-27T14:54:54.545Z,97894.44
2023-04-27T14:57:25.844Z,97889.92
2023-04-27T14:59:57.022Z,97889.40
2023-04-27T15:02:28.152Z,97885.33
2023-04-27T15:05:02.070Z,97885.14
2023-04-27T15:07:36.208Z,97886.66
2023-04-27T15:10:08.734Z,97881.38
2023-04-27T15:12:39.733Z,97879.65
2023-04-27T15:15:13.758Z,97880.49
2023-04-27T15:17:44.787Z,97883.79
2023-04-27T15:20:16.948Z,97884.39
2023-04-27T15:22:48.224Z,97882.75
2023-04-27T15:25:19.175Z,97887.98
2023-04-27T15:27:50.479Z,97891.83
2023-04-27T15:30:21.591Z,97886.37
2023-04-27T15:32:52.877Z,97884.50
2023-04-27T15:35:24.120Z,97882.91
2023-04-27T15:37:55.282Z,97886.53
2023-04-27T15:40:26.769Z,97883.14
2023-04-27T15:42:59.099Z,97884.03
2023-04-27T15:45:31.665Z,97884.14
2023-04-27T15:48:02.998Z,97880.41
2023-04-27T15:50:34.528Z,97880.29
2023-04-27T15:53:05.497Z,97880.71
2023-04-27T15:55:36.846Z,97881.63
2023-04-27T15:58:08.201Z,97880.23
2023-04-27T16:00:39.689Z,97880.48
2023-04-27T16:03:13.324Z,97876.78
2023-04-27T16:05:45.084Z,97876.97
2023-04-27T16:08:16.206Z,97878.80
2023-04-27T16:10:47.306Z,97872.95
2023-04-27T16:13:18.554Z,97871.73
2023-04-27T16:15:49.793Z,97868.27
2023-04-27T16:18:21.379Z,97865.95
2023-04-27T16:20:52.472Z,97867.63
2023-04-27T16:23:24.498Z,97863.27
2023-04-27T16:25:55.541Z,97862.52
2023-04-27T16:28:26.945Z,97859.77
2023-04-27T16:30:58.773Z,97859.50
2023-04-27T16:33:29.785Z,97861.30
2023-04-27T16:36:01.391Z,97861.80
2023-04-27T16:38:32.389Z,97858.26
2023-04-27T16:41:03.437Z,97858.87
2023-04-27T16:43:34.533Z,97860.44
2023-04-27T16:46:06.425Z,97862.35
2023-04-27T16:48:37.576Z,97859.96
2023-04-27T16:51:10.482Z,97853.29
2023-04-27T16:53:41.856Z,97856.60
2023-04-27T16:56:13.828Z,97851.88
2023-04-27T16:58:44.798Z,97852.02
2023-04-27T17:01:15.747Z,97852.29
2023-04-27T17:03:47.515Z,97854.39
2023-04-27T17:06:18.631Z,97854.69
2023-04-27T17:11:21.216Z,97853.85
2023-04-27T17:13:52.687Z,97853.61
2023-04-27T17:16:23.684Z,97854.34
2023-04-27T17:18:56.197Z,97854.11
2023-04-27T17:21:28.130Z,97851.05
2023-04-27T17:23:59.063Z,97856.35
2023-04-27T17:26:30.271Z,97858.63
2023-04-27T17:29:01.782Z,97857.91
2023-04-27T17:31:32.895Z,97860.45
2023-04-27T17:34:05.012Z,97853.64
2023-04-27T17:36:36.365Z,97854.63
2023-04-27T17:39:08.184Z,97855.77
2023-04-27T17:41:39.248Z,97854.04
2023-04-27T17:44:10.390Z,97852.34
2023-04-27T17:46:46.318Z,97848.29
2023-04-27T17:49:18.132Z,97852.69
2023-04-27T17:51:50.074Z,97854.20
2023-04-27T17:54:21.545Z,97851.20
2023-04-27T17:56:52.555Z,97854.97
2023-04-27T17:59:24.893Z,97854.30
2023-04-27T18:01:56.357Z,97858.16
2023-04-27T18:04:27.506Z,97863.33
2023-04-27T18:06:58.794Z,97863.98
2023-04-27T18:09:30.832Z,97867.25
2023-04-27T18:12:06.189Z,97870.69
2023-04-27T18:14:37.546Z,97874.77
2023-04-27T18:17:08.824Z,97883.41
2023-04-27T18:19:40.078Z,97884.02
2023-04-27T18:22:12.040Z,97890.54
2023-04-27T18:24:43.875Z,97893.53
2023-04-27T18:27:16.743Z,97894.94
2023-04-27T18:29:47.816Z,97892.66
2023-04-27T18:32:17.286Z,97894.58
2023-04-27T18:34:48.327Z,97894.54
2023-04-27T18:37:19.190Z,97897.92
2023-04-27T18:39:52.783Z,97905.41
2023-04-27T18:42:24.231Z,97908.94
2023-04-27T18:45:00.501Z,97908.20
2023-04-27T18:47:33.596Z,97910.92
2023-04-27T18:50:04.838Z,97919.05
2023-04-27T18:52:34.421Z,97922.60
2023-04-27T18:55:07.196Z,97929.27
2023-04-27T18:57:38.425Z,97928.70
2023-04-27T19:00:11.824Z,97931.77
2023-04-27T19:02:43.193Z,97937.75
2023-04-27T19:05:15.968Z,97937.30
2023-04-27T19:07:47.274Z,97938.09
2023-04-27T19:10:18.519Z,97936.41
2023-04-27T19:12:49.963Z,97932.60
2023-04-27T19:15:19.617Z,97937.91
2023-04-27T19:18:02.152Z,97936.42
2023-04-27T19:20:42.012Z,97937.01
2023-04-27T19:23:13.695Z,97934.81
2023-04-27T19:25:45.268Z,97941.89
2023-04-27T19:28:18.787Z,97943.39
2023-04-27T19:30:50.689Z,97942.45
2023-04-27T19:33:22.694Z,97942.38
2023-04-27T19:35:53.714Z,97941.11
2023-04-27T19:38:25.399Z,97944.59
2023-04-27T19:40:56.411Z,97944.61
2023-04-27T19:43:29.257Z,97944.41
2023-04-27T19:46:02.162Z,97948.40
2023-04-27T19:48:33.777Z,97951.67
2023-04-27T19:51:09.027Z,97954.23
2023-04-27T19:53:40.298Z,97956.84
2023-04-27T19:56:11.347Z,97954.11
2023-04-27T19:58:42.383Z,97956.83
2023-04-27T20:01:13.668Z,97959.13
2023-04-27T20:03:44.947Z,97959.16
2023-04-27T20:06:17.136Z,97963.40
2023-04-27T20:08:48.785Z,97958.73
2023-04-27T20:11:19.728Z,97957.75
2023-04-27T20:13:50.916Z,97960.06
2023-04-27T20:16:22.189Z,97963.39
2023-04-27T20:18:53.430Z,97958.08
2023-04-27T20:21:24.606Z,97963.33
2023-04-27T20:23:54.352Z,97962.73
2023-04-27T20:26:26.321Z,97967.24
2023-04-27T20:28:57.379Z,97968.67
2023-04-27T20:31:28.527Z,97973.02
2023-04-27T20:33:59.713Z,97973.92
2023-04-27T20:36:32.144Z,97976.13
2023-04-27T20:39:05.515Z,97973.11
2023-04-27T20:41:38.520Z,97973.98
2023-04-27T20:44:09.670Z,97978.84
2023-04-27T20:46:40.912Z,97978.20
2023-04-27T20:49:13.445Z,97977.92
2023-04-27T20:51:44.780Z,97974.75
2023-04-27T20:54:16.067Z,97974.06
2023-04-27T20:56:46.906Z,97975.83
2023-04-27T20:59:17.863Z,97971.47
2023-04-27T21:01:48.894Z,97967.34
2023-04-27T21:04:20.239Z,97958.63
2023-04-27T21:06:51.847Z,97958.88
2023-04-27T21:09:23.026Z,97952.49
2023-04-27T21:11:53.952Z,97952.02
2023-04-27T21:14:24.887Z,97951.77
2023-04-27T21:16:55.943Z,97951.65
2023-04-27T21:19:27.150Z,97943.54
2023-04-27T21:21:58.158Z,97941.71
2023-04-27T21:24:29.568Z,97941.51
2023-04-27T21:27:01.053Z,97943.48
2023-04-27T21:29:32.612Z,97943.83
2023-04-27T21:32:03.625Z,97943.16
2023-04-27T21:34:34.861Z,97946.05
2023-04-27T21:37:04.570Z,97950.52
2023-04-27T21:39:35.919Z,97946.66
2023-04-27T21:42:07.489Z,97951.06
2023-04-27T21:44:38.749Z,97954.48
2023-04-27T21:47:09.869Z,97953.48
2023-04-27T21:49:41.023Z,97953.80
2023-04-27T21:52:11.979Z,97950.05
2023-04-27T21:54:43.097Z,97949.25
2023-04-27T21:57:14.229Z,97944.17
2023-04-27T21:59:45.251Z,97951.48
2023-04-27T22:02:16.876Z,97954.48
2023-04-27T22:04:49.905Z,97948.64
2023-04-27T22:07:21.112Z,97947.17
2023-04-27T22:09:52.107Z,97947.23
2023-04-27T22:12:23.114Z,97947.84
2023-04-27T22:14:54.597Z,97941.71
2023-04-27T22:17:26.215Z,97939.75
2023-04-27T22:19:58.536Z,97938.30
2023-04-27T22:22:29.979Z,97939.96
2023-04-27T22:25:01.647Z,97940.73
2023-04-27T22:27:41.910Z,97940.08
2023-04-27T22:30:17.366Z,97941.59
2023-04-27T22:32:48.666Z,97946.26
2023-04-27T22:37:55.063Z,97946.55
2023-04-27T22:40:26.524Z,97945.23
2023-04-27T22:42:57.775Z,97948.10
2023-04-27T22:45:29.184Z,97950.19
2023-04-27T22:48:00.513Z,97950.48
2023-04-27T22:50:31.589Z,97952.64
2023-04-27T22:53:03.782Z,97948.90
2023-04-27T22:55:35.116Z,97946.41
2023-04-27T22:58:06.277Z,97946.79
2023-04-27T23:00:39.981Z,97950.88
2023-04-27T23:03:12.346Z,97948.92
2023-04-27T23:05:43.532Z,97946.23
2023-04-27T23:08:17.218Z,97944.48
2023-04-27T23:10:48.429Z,97940.73
2023-04-27T23:13:20.176Z,97939.28
2023-04-27T23:15:51.185Z,97936.30
2023-04-27T23:18:22.492Z,97934.64
2023-04-27T23:20:56.670Z,97933.73
2023-04-27T23:23:27.787Z,97935.83
2023-04-27T23:25:58.902Z,97935.23
2023-04-27T23:28:29.952Z,97931.68
2023-04-27T23:31:01.116Z,97930.84
2023-04-27T23:33:33.785Z,97928.95
2023-04-27T23:36:05.697Z,97926.42
2023-04-27T23:38:36.971Z,97928.52
2023-04-27T23:41:08.181Z,97927.67
2023-04-27T23:43:39.653Z,97930.25
2023-04-27T23:46:09.819Z,97927.64
2023-04-27T23:48:39.221Z,97929.85
2023-04-27T23:51:10.625Z,97926.38
2023-04-27T23:53:41.585Z,97928.83
2023-04-27T23:56:20.134Z,97926.00
2023-04-27T23:58:51.277Z,97922.14
